createdAt,value
2023-02-11T00:00:33.194Z,15.33
2023-02-11T00:03:00.760Z,16.63
2023-02-11T00:05:35.242Z,13.97
2023-02-11T00:08:02.579Z,13.03
2023-02-11T00:10:36.240Z,14.30
2023-02-11T00:13:03.728Z,15.00
2023-02-11T00:15:37.247Z,13.90
2023-02-11T00:18:04.736Z,15.03
2023-02-11T00:20:39.243Z,17.20
2023-02-11T00:23:06.599Z,14.77
2023-02-11T00:25:41.234Z,13.50
2023-02-11T00:28:16.239Z,14.13
2023-02-11T00:30:50.370Z,15.60
2023-02-11T00:33:25.218Z,14.20
2023-02-11T00:35:59.235Z,13.33
2023-02-11T00:38:26.574Z,12.63
2023-02-11T00:40:53.908Z,13.63
2023-02-11T00:43:28.213Z,11.43
2023-02-11T00:45:55.640Z,12.03
2023-02-11T00:48:29.257Z,14.10
2023-02-11T00:51:03.256Z,10.90
2023-02-11T00:53:31.197Z,12.30
2023-02-11T00:56:06.274Z,10.87
2023-02-11T00:58:40.257Z,11.07
2023-02-11T01:01:09.011Z,9.27
2023-02-11T01:03:44.250Z,14.87
2023-02-11T01:06:12.831Z,9.00
2023-02-11T01:08:47.231Z,9.60
2023-02-11T01:11:18.777Z,10.50
2023-02-11T01:13:54.276Z,10.57
2023-02-11T01:16:23.190Z,11.00
2023-02-11T01:18:57.286Z,11.87
2023-02-11T01:21:25.904Z,9.73
2023-02-11T01:24:01.271Z,9.63
2023-02-11T01:26:28.626Z,9.57
2023-02-11T01:29:03.289Z,7.23
2023-02-11T01:31:32.575Z,5.83
2023-02-11T01:34:07.237Z,7.97
2023-02-11T01:36:35.294Z,6.57
2023-02-11T01:39:09.236Z,6.13
2023-02-11T01:41:37.309Z,5.87
2023-02-11T01:44:40.321Z,7.03
2023-02-11T01:47:08.105Z,7.53
2023-02-11T01:49:52.640Z,7.57
2023-02-11T01:52:37.521Z,5.03
2023-02-11T01:55:35.272Z,7.93
2023-02-11T01:58:13.234Z,5.83
2023-02-11T02:00:49.231Z,5.77
2023-02-11T02:03:26.491Z,5.33
2023-02-11T02:06:24.253Z,5.53
2023-02-11T02:09:00.118Z,5.20
2023-02-11T02:11:34.277Z,5.63
2023-02-11T02:14:02.027Z,5.80
2023-02-11T02:16:43.291Z,8.53
2023-02-11T02:19:33.400Z,4.37
2023-02-11T02:22:54.289Z,5.77
2023-02-11T02:25:49.364Z,7.47
2023-02-11T02:28:45.283Z,4.63
2023-02-11T02:31:42.422Z,6.60
2023-02-11T02:34:48.327Z,5.30
2023-02-11T02:37:43.389Z,7.10
2023-02-11T02:40:20.014Z,6.20
2023-02-11T02:42:56.284Z,7.57
2023-02-11T02:45:31.295Z,7.77
2023-02-11T02:48:00.130Z,7.30
2023-02-11T02:50:38.284Z,6.03
2023-02-11T02:53:39.446Z,5.97
2023-02-11T02:56:29.255Z,6.13
2023-02-11T02:59:31.308Z,9.07
2023-02-11T03:02:40.287Z,5.43
2023-02-11T03:05:28.321Z,5.27
2023-02-11T03:08:23.970Z,9.43
2023-02-11T03:11:01.269Z,7.47
2023-02-11T03:13:33.868Z,6.43
2023-02-11T03:16:19.336Z,8.70
2023-02-11T03:18:53.259Z,7.73
2023-02-11T03:21:29.274Z,8.57
2023-02-11T03:24:03.090Z,8.80
2023-02-11T03:26:41.300Z,5.93
2023-02-11T03:29:29.316Z,9.17
2023-02-11T03:32:18.172Z,5.70
2023-02-11T03:35:14.281Z,7.40
2023-02-11T03:38:05.814Z,8.93
2023-02-11T03:40:44.313Z,6.27
2023-02-11T03:43:49.272Z,7.67
2023-02-11T03:46:20.930Z,9.07
2023-02-11T03:48:59.272Z,11.43
2023-02-11T03:51:29.448Z,7.93
2023-02-11T03:54:06.304Z,12.20
2023-02-11T03:56:49.276Z,6.77
2023-02-11T03:59:23.336Z,7.50
2023-02-11T04:01:58.290Z,7.83
2023-02-11T04:04:39.262Z,7.73
2023-02-11T04:07:06.606Z,9.03
2023-02-11T04:09:35.373Z,8.17
2023-02-11T04:12:09.260Z,8.33
2023-02-11T04:14:36.980Z,8.87
2023-02-11T04:17:11.295Z,10.20
2023-02-11T04:19:46.345Z,6.80
2023-02-11T04:22:21.281Z,6.37
2023-02-11T04:24:56.289Z,8.67
2023-02-11T04:27:23.923Z,6.87
2023-02-11T04:29:58.292Z,6.90
2023-02-11T04:32:25.965Z,5.90
2023-02-11T04:34:54.895Z,4.67
2023-02-11T04:37:29.280Z,6.57
2023-02-11T04:39:56.753Z,5.37
2023-02-11T04:42:31.279Z,6.00
2023-02-11T04:45:06.296Z,4.87
2023-02-11T04:47:40.269Z,4.83
2023-02-11T04:50:14.348Z,5.17
2023-02-11T04:52:42.787Z,5.27
2023-02-11T04:55:16.332Z,4.63
2023-02-11T04:57:43.712Z,4.83
2023-02-11T05:00:12.869Z,7.17
2023-02-11T05:02:46.307Z,4.67
2023-02-11T05:05:27.265Z,4.37
2023-02-11T05:07:55.757Z,5.10
2023-02-11T05:10:29.330Z,4.57
2023-02-11T05:12:56.808Z,6.07
2023-02-11T05:15:31.390Z,4.97
2023-02-11T05:18:05.307Z,5.83
2023-02-11T05:20:41.384Z,4.60
2023-02-11T05:23:10.195Z,4.00
2023-02-11T05:25:44.312Z,5.17
2023-02-11T05:28:11.932Z,3.77
2023-02-11T05:30:47.288Z,7.93
2023-02-11T05:33:15.477Z,3.83
2023-02-11T05:35:50.572Z,5.70
2023-02-11T05:38:25.311Z,6.50
2023-02-11T05:40:59.288Z,5.43
2023-02-11T05:43:26.796Z,7.00
2023-02-11T05:46:01.374Z,3.30
2023-02-11T05:48:28.709Z,6.73
2023-02-11T05:51:02.353Z,6.47
2023-02-11T05:53:29.729Z,5.00
2023-02-11T05:56:04.305Z,3.63
2023-02-11T05:58:32.335Z,4.83
2023-02-11T06:01:06.314Z,3.73
2023-02-11T06:03:42.579Z,2.80
2023-02-11T06:06:13.552Z,4.27
2023-02-11T06:08:49.634Z,3.13
2023-02-11T06:11:17.968Z,2.80
2023-02-11T06:13:45.402Z,3.23
2023-02-11T06:16:19.649Z,5.33
2023-02-11T06:18:53.621Z,6.43
2023-02-11T06:21:21.089Z,3.73
2023-02-11T06:23:55.639Z,2.80
2023-02-11T06:26:32.645Z,2.20
2023-02-11T06:29:22.644Z,2.50
2023-02-11T06:32:03.767Z,2.70
2023-02-11T06:34:37.652Z,3.67
2023-02-11T06:37:05.093Z,2.30
2023-02-11T06:39:39.624Z,2.80
2023-02-11T06:42:13.607Z,4.03
2023-02-11T06:44:47.601Z,3.63
2023-02-11T06:47:14.938Z,4.10
2023-02-11T06:49:48.647Z,2.57
2023-02-11T06:52:15.962Z,2.47
2023-02-11T06:54:50.635Z,2.27
2023-02-11T06:57:24.627Z,2.40
2023-02-11T06:59:58.654Z,3.00
2023-02-11T07:02:32.774Z,3.90
2023-02-11T07:05:14.586Z,2.43
2023-02-11T07:07:41.920Z,3.20
2023-02-11T07:10:16.625Z,2.63
2023-02-11T07:12:45.154Z,2.70
2023-02-11T07:15:12.535Z,2.70
2023-02-11T07:17:46.640Z,3.20
2023-02-11T07:20:15.060Z,2.40
2023-02-11T07:22:49.608Z,3.00
2023-02-11T07:25:23.620Z,2.17
2023-02-11T07:27:51.053Z,1.87
2023-02-11T07:30:25.653Z,2.63
2023-02-11T07:33:00.669Z,3.23
2023-02-11T07:35:28.108Z,2.13
2023-02-11T07:38:13.602Z,2.90
2023-02-11T07:40:51.632Z,2.67
2023-02-11T07:43:20.879Z,2.23
2023-02-11T07:45:54.951Z,5.13
2023-02-11T07:48:22.379Z,2.77
2023-02-11T07:50:56.032Z,2.57
2023-02-11T07:53:23.387Z,5.00
2023-02-11T07:55:56.931Z,3.70
2023-02-11T07:58:24.213Z,4.60
2023-02-11T08:00:57.937Z,2.00
2023-02-11T08:03:32.005Z,2.70
2023-02-11T08:06:18.947Z,1.90
2023-02-11T08:08:46.785Z,2.57
2023-02-11T08:11:23.978Z,2.30
2023-02-11T08:13:52.207Z,1.80
2023-02-11T08:16:31.014Z,2.13
2023-02-11T08:19:06.927Z,3.00
2023-02-11T08:21:34.290Z,2.00
2023-02-11T08:24:09.942Z,2.20
2023-02-11T08:26:38.658Z,4.10
2023-02-11T08:29:18.915Z,2.20
2023-02-11T08:31:53.985Z,1.70
2023-02-11T08:34:29.109Z,2.27
2023-02-11T08:37:02.939Z,1.47
2023-02-11T08:39:33.020Z,3.23
2023-02-11T08:42:07.147Z,1.80
2023-02-11T08:44:40.956Z,1.77
2023-02-11T08:47:08.388Z,2.83
2023-02-11T08:49:42.962Z,3.23
2023-02-11T08:52:10.405Z,2.13
2023-02-11T08:54:46.949Z,2.47
2023-02-11T08:57:14.290Z,1.77
2023-02-11T08:59:47.950Z,3.73
2023-02-11T09:02:15.718Z,3.10
2023-02-11T09:04:56.939Z,2.27
2023-02-11T09:07:30.984Z,2.73
2023-02-11T09:09:58.931Z,3.00
2023-02-11T09:12:32.942Z,2.00
2023-02-11T09:15:09.365Z,3.00
2023-02-11T09:17:42.918Z,3.20
2023-02-11T09:20:10.970Z,2.27
2023-02-11T09:22:44.933Z,5.50
2023-02-11T09:25:12.359Z,4.57
2023-02-11T09:27:46.912Z,4.10
2023-02-11T09:30:14.414Z,2.93
2023-02-11T09:32:47.937Z,1.60
2023-02-11T09:35:16.379Z,3.87
2023-02-11T09:37:49.933Z,1.90
2023-02-11T09:40:18.372Z,4.20
2023-02-11T09:43:07.952Z,1.80
2023-02-11T09:45:37.688Z,1.90
2023-02-11T09:48:27.932Z,2.83
2023-02-11T09:51:05.019Z,1.10
2023-02-11T09:53:45.026Z,3.95
2023-02-11T09:56:26.476Z,1.80
2023-02-11T09:59:00.979Z,2.80
2023-02-11T10:01:34.469Z,1.45
2023-02-11T10:04:33.963Z,1.33
2023-02-11T10:07:36.005Z,1.40
2023-02-11T10:11:11.389Z,2.88
2023-02-11T10:14:27.366Z,2.05
2023-02-11T10:17:16.450Z,3.08
2023-02-11T10:20:18.389Z,3.58
2023-02-11T10:23:03.363Z,1.50
2023-02-11T10:25:35.107Z,1.70
2023-02-11T10:28:27.438Z,2.30
2023-02-11T10:31:06.238Z,5.90
2023-02-11T10:33:56.398Z,5.65
2023-02-11T10:36:29.012Z,6.53
2023-02-11T10:39:05.471Z,4.57
2023-02-11T10:41:46.412Z,4.28
2023-02-11T10:45:02.533Z,6.15
2023-02-11T10:47:44.402Z,4.72
2023-02-11T10:50:25.253Z,5.18
2023-02-11T10:53:01.368Z,4.35
2023-02-11T10:55:29.350Z,4.40
2023-02-11T10:58:09.459Z,4.20
2023-02-11T11:00:40.947Z,3.58
2023-02-11T11:03:29.906Z,2.88
2023-02-11T11:06:02.829Z,4.53
2023-02-11T11:08:58.469Z,3.28
2023-02-11T11:11:32.706Z,4.97
2023-02-11T11:14:10.517Z,3.80
2023-02-11T11:16:44.548Z,4.95
2023-02-11T11:19:29.158Z,4.25
2023-02-11T11:21:57.851Z,4.60
2023-02-11T11:24:51.495Z,5.43
2023-02-11T11:27:23.470Z,6.03
2023-02-11T11:30:01.661Z,4.07
2023-02-11T11:32:40.486Z,6.07
2023-02-11T11:35:41.431Z,4.38
2023-02-11T11:38:15.046Z,5.07
2023-02-11T11:40:49.752Z,3.20
2023-02-11T11:43:23.147Z,4.00
2023-02-11T11:46:06.400Z,4.95
2023-02-11T11:48:42.296Z,4.53
2023-02-11T11:51:20.453Z,4.70
2023-02-11T11:54:03.166Z,5.47
2023-02-11T11:56:47.393Z,2.97
2023-02-11T11:59:23.439Z,6.13
2023-02-11T12:02:03.451Z,4.55
2023-02-11T12:04:58.411Z,3.75
2023-02-11T12:08:06.467Z,3.63
2023-02-11T12:11:08.646Z,4.43
2023-02-11T12:14:14.420Z,6.57
2023-02-11T12:17:24.859Z,4.90
2023-02-11T12:20:14.514Z,6.43
2023-02-11T12:23:03.265Z,6.40
2023-02-11T12:26:11.617Z,6.03
2023-02-11T12:28:53.730Z,5.15
2023-02-11T12:31:55.440Z,10.63
2023-02-11T12:35:00.571Z,7.00
2023-02-11T12:37:59.530Z,4.40
2023-02-11T12:40:39.455Z,5.43
2023-02-11T12:43:28.681Z,5.55
2023-02-11T12:46:03.075Z,6.07
2023-02-11T12:49:14.422Z,6.25
2023-02-11T12:52:16.170Z,6.47
2023-02-11T12:55:03.408Z,9.20
2023-02-11T12:57:43.845Z,9.38
2023-02-11T13:00:29.399Z,9.68
2023-02-11T13:03:10.903Z,7.75
2023-02-11T13:05:55.713Z,10.65
2023-02-11T13:08:52.425Z,9.32
2023-02-11T13:11:58.509Z,8.27
2023-02-11T13:14:41.530Z,9.48
2023-02-11T13:17:22.570Z,8.32
2023-02-11T13:20:06.413Z,8.48
2023-02-11T13:22:45.882Z,10.85
2023-02-11T13:25:38.412Z,8.52
2023-02-11T13:28:33.493Z,6.57
2023-02-11T13:31:13.539Z,10.50
2023-02-11T13:33:52.504Z,9.48
2023-02-11T13:36:32.450Z,13.05
2023-02-11T13:39:20.072Z,10.13
2023-02-11T13:41:56.446Z,9.60
2023-02-11T13:44:33.517Z,12.25
2023-02-11T13:47:14.446Z,8.50
2023-02-11T13:49:56.628Z,10.52
2023-02-11T13:52:44.498Z,9.00
2023-02-11T13:55:28.464Z,10.68
2023-02-11T13:58:14.842Z,11.73
2023-02-11T14:00:55.652Z,9.10
2023-02-11T14:03:59.495Z,7.95
2023-02-11T14:06:48.387Z,10.50
2023-02-11T14:09:23.491Z,10.13
2023-02-11T14:12:06.555Z,12.02
2023-02-11T14:14:54.548Z,9.65
2023-02-11T14:17:37.572Z,9.93
2023-02-11T14:20:35.997Z,9.68
2023-02-11T14:23:11.717Z,7.93
2023-02-11T14:25:42.113Z,11.13
2023-02-11T14:28:25.612Z,10.15
2023-02-11T14:31:24.540Z,7.40
2023-02-11T14:34:04.405Z,8.57
2023-02-11T14:36:50.762Z,7.28
2023-02-11T14:39:43.433Z,9.48
2023-02-11T14:42:33.525Z,8.38
2023-02-11T14:45:07.631Z,7.70
2023-02-11T14:47:57.418Z,7.00
2023-02-11T14:50:44.684Z,8.13
2023-02-11T14:53:24.517Z,7.25
2023-02-11T14:56:00.461Z,7.43
2023-02-11T14:58:37.426Z,7.88
2023-02-11T15:01:28.509Z,14.75
2023-02-11T15:03:58.596Z,8.93
2023-02-11T15:06:39.501Z,11.77
2023-02-11T15:09:14.321Z,7.25
2023-02-11T15:11:52.471Z,8.95
2023-02-11T15:14:30.547Z,8.73
2023-02-11T15:17:01.079Z,7.80
2023-02-11T15:19:44.504Z,9.40
2023-02-11T15:22:32.464Z,9.35
2023-02-11T15:25:10.843Z,10.45
2023-02-11T15:27:50.444Z,9.52
2023-02-11T15:30:30.537Z,8.77
2023-02-11T15:33:03.871Z,11.05
2023-02-11T15:35:41.510Z,10.45
2023-02-11T15:38:17.558Z,11.07
2023-02-11T15:41:02.873Z,10.38
2023-02-11T15:43:49.490Z,11.50
2023-02-11T15:46:22.507Z,14.00
2023-02-11T15:49:01.469Z,11.70
2023-02-11T15:51:37.582Z,13.23
2023-02-11T15:54:34.515Z,11.97
2023-02-11T15:57:13.549Z,14.03
2023-02-11T15:59:52.473Z,13.17
2023-02-11T16:02:25.951Z,11.80
2023-02-11T16:05:08.517Z,12.43
2023-02-11T16:07:44.887Z,12.40
2023-02-11T16:10:36.466Z,10.20
2023-02-11T16:13:19.251Z,17.53
2023-02-11T16:16:08.519Z,12.90
2023-02-11T16:18:52.075Z,17.03
2023-02-11T16:21:45.455Z,13.70
2023-02-11T16:24:22.441Z,13.17
2023-02-11T16:26:59.477Z,13.20
2023-02-11T16:29:35.513Z,19.13
2023-02-11T16:32:16.566Z,18.40
2023-02-11T16:34:51.560Z,19.47
2023-02-11T16:37:25.587Z,19.87
2023-02-11T16:40:03.536Z,21.83
2023-02-11T16:42:37.466Z,20.97
2023-02-11T16:45:06.784Z,21.67
2023-02-11T16:47:42.610Z,21.33
2023-02-11T16:50:18.985Z,18.73
2023-02-11T16:52:53.492Z,20.70
2023-02-11T16:55:22.291Z,20.73
2023-02-11T16:57:56.493Z,21.37
2023-02-11T17:00:24.262Z,24.63
2023-02-11T17:02:59.481Z,21.53
2023-02-11T17:05:27.465Z,21.17
2023-02-11T17:08:01.462Z,26.33
2023-02-11T17:10:49.781Z,21.30
2023-02-11T17:13:24.499Z,24.03
2023-02-11T17:15:52.421Z,21.87
2023-02-11T17:18:27.470Z,21.30
2023-02-11T17:20:55.245Z,26.17
2023-02-11T17:23:29.446Z,23.47
2023-02-11T17:25:57.422Z,25.97
2023-02-11T17:28:31.488Z,26.80
2023-02-11T17:31:13.581Z,22.00
2023-02-11T17:33:41.391Z,25.20
2023-02-11T17:36:16.472Z,27.00
2023-02-11T17:38:50.762Z,27.60
2023-02-11T17:41:18.912Z,23.80
2023-02-11T17:43:52.464Z,33.50
2023-02-11T17:46:20.225Z,27.10
2023-02-11T17:48:54.534Z,26.37
2023-02-11T17:51:43.496Z,28.73
2023-02-11T17:54:23.474Z,32.73
2023-02-11T17:56:58.606Z,27.53
2023-02-11T17:59:33.495Z,29.80
2023-02-11T18:02:08.493Z,27.23
2023-02-11T18:04:36.331Z,28.50
2023-02-11T18:07:10.491Z,24.93
2023-02-11T18:09:46.463Z,26.17
2023-02-11T18:12:25.272Z,30.10
2023-02-11T18:15:01.446Z,28.30
2023-02-11T18:17:29.250Z,29.33
2023-02-11T18:20:04.452Z,33.33
2023-02-11T18:22:45.484Z,29.97
2023-02-11T18:25:23.488Z,32.30
2023-02-11T18:27:57.661Z,36.13
2023-02-11T18:30:32.697Z,32.97
2023-02-11T18:33:06.484Z,29.23
2023-02-11T18:35:39.282Z,32.60
2023-02-11T18:38:13.519Z,29.67
2023-02-11T18:40:41.609Z,27.47
2023-02-11T18:43:16.504Z,30.73
2023-02-11T18:45:48.248Z,30.53
2023-02-11T18:48:23.517Z,27.03
2023-02-11T18:50:52.461Z,29.53
2023-02-11T18:53:26.785Z,32.63
2023-02-11T18:55:54.940Z,25.60
2023-02-11T18:58:29.528Z,25.33
2023-02-11T19:01:03.524Z,24.60
2023-02-11T19:03:31.037Z,26.87
2023-02-11T19:06:04.501Z,22.63
2023-02-11T19:08:39.531Z,24.60
2023-02-11T19:11:20.542Z,20.83
2023-02-11T19:13:48.627Z,25.33
2023-02-11T19:16:26.627Z,22.10
2023-02-11T19:19:00.852Z,20.17
2023-02-11T19:21:28.302Z,20.87
2023-02-11T19:24:02.493Z,17.90
2023-02-11T19:26:36.470Z,18.37
2023-02-11T19:29:05.739Z,18.57
2023-02-11T19:31:39.658Z,20.53
2023-02-11T19:34:14.491Z,20.07
2023-02-11T19:36:42.511Z,18.77
2023-02-11T19:39:17.474Z,20.03
2023-02-11T19:41:53.584Z,17.80
2023-02-11T19:44:23.659Z,15.63
2023-02-11T19:46:59.599Z,15.63
2023-02-11T19:49:33.528Z,18.10
2023-02-11T19:52:08.535Z,14.23
2023-02-11T19:54:44.607Z,14.90
2023-02-11T19:57:19.496Z,18.03
2023-02-11T19:59:47.095Z,18.10
2023-02-11T20:02:21.586Z,17.33
2023-02-11T20:04:49.232Z,16.30
2023-02-11T20:07:23.782Z,17.60
2023-02-11T20:09:57.777Z,22.70
2023-02-11T20:12:31.461Z,18.67
2023-02-11T20:14:58.866Z,20.33
2023-02-11T20:17:33.623Z,18.30
2023-02-11T20:20:01.417Z,20.40
2023-02-11T20:22:36.529Z,18.27
2023-02-11T20:25:04.443Z,18.50
2023-02-11T20:27:39.487Z,18.70
2023-02-11T20:30:15.513Z,18.30
2023-02-11T20:32:45.661Z,20.03
2023-02-11T20:35:19.490Z,17.10
2023-02-11T20:37:53.583Z,21.03
2023-02-11T20:40:21.414Z,16.83
2023-02-11T20:42:55.695Z,14.93
2023-02-11T20:45:23.148Z,19.73
2023-02-11T20:47:57.562Z,20.57
2023-02-11T20:50:25.206Z,23.50
2023-02-11T20:52:59.514Z,23.53
2023-02-11T20:55:33.507Z,24.63
2023-02-11T20:58:01.151Z,23.13
2023-02-11T21:00:35.535Z,22.77
2023-02-11T21:03:03.919Z,19.80
2023-02-11T21:05:38.714Z,20.07
2023-02-11T21:08:06.279Z,20.63
2023-02-11T21:10:40.523Z,21.40
2023-02-11T21:13:21.502Z,19.17
2023-02-11T21:16:02.636Z,17.77
2023-02-11T21:18:32.788Z,18.10
2023-02-11T21:21:07.199Z,14.23
2023-02-11T21:23:42.144Z,13.13
2023-02-11T21:26:09.870Z,18.23
2023-02-11T21:28:44.196Z,15.03
2023-02-11T21:31:29.250Z,17.67
2023-02-11T21:33:59.543Z,15.70
2023-02-11T21:36:35.240Z,16.10
2023-02-11T21:39:10.195Z,13.17
2023-02-11T21:41:37.784Z,14.43
2023-02-11T21:44:12.139Z,15.00
2023-02-11T21:46:40.026Z,13.37
2023-02-11T21:49:14.161Z,13.23
2023-02-11T21:51:41.668Z,12.90
2023-02-11T21:54:17.139Z,13.03
2023-02-11T21:56:45.763Z,11.53
2023-02-11T21:59:23.158Z,12.90
2023-02-11T22:01:51.060Z,15.90
2023-02-11T22:04:25.146Z,13.27
2023-02-11T22:06:59.197Z,11.70
2023-02-11T22:09:47.104Z,11.87
2023-02-11T22:12:21.312Z,15.17
2023-02-11T22:14:49.714Z,14.30
2023-02-11T22:17:24.299Z,12.27
2023-02-11T22:19:51.882Z,10.53
2023-02-11T22:22:28.125Z,16.50
2023-02-11T22:24:56.140Z,12.17
2023-02-11T22:27:30.168Z,10.50
2023-02-11T22:30:04.140Z,9.47
2023-02-11T22:32:38.105Z,10.90
2023-02-11T22:35:12.163Z,11.87
2023-02-11T22:37:46.095Z,9.57
2023-02-11T22:40:20.101Z,11.70
2023-02-11T22:42:54.138Z,10.50
2023-02-11T22:45:21.593Z,10.37
2023-02-11T22:47:55.135Z,11.20
2023-02-11T22:50:29.098Z,12.27
2023-02-11T22:52:56.433Z,11.07
2023-02-11T22:55:31.126Z,12.57
2023-02-11T22:58:05.093Z,9.30
2023-02-11T23:00:38.271Z,8.23
2023-02-11T23:03:14.145Z,9.50
2023-02-11T23:05:42.388Z,8.77
2023-02-11T23:08:19.182Z,11.13
2023-02-11T23:10:53.203Z,10.07
2023-02-11T23:13:27.227Z,11.20
2023-02-11T23:16:01.128Z,12.50
2023-02-11T23:18:28.646Z,13.07
2023-02-11T23:20:56.046Z,14.20
2023-02-11T23:23:30.140Z,11.77
2023-02-11T23:26:04.088Z,10.30
2023-02-11T23:28:31.536Z,11.80
2023-02-11T23:31:08.221Z,10.10
2023-02-11T23:33:35.829Z,11.20
2023-02-11T23:36:10.138Z,8.87
2023-02-11T23:38:45.148Z,8.67
2023-02-11T23:41:12.914Z,8.13
2023-02-11T23:43:47.176Z,7.27
2023-02-11T23:46:14.618Z,8.07
2023-02-11T23:48:48.149Z,6.97
2023-02-11T23:51:22.139Z,6.43
2023-02-11T23:53:50.425Z,5.83
2023-02-11T23:56:30.150Z,6.40
2023-02-11T23:58:59.214Z,6.70
